Time;durP1;ratioP1;P1;durP2;ratioP2;P2;SDS_P1;SDS_P2;PMS_P1;PMS_P2;Temp;Humidity;BMP_temperature;BMP_pressure;BME280_temperature;BME280_humidity;BME280_pressure;Samples;Min_cycle;Max_cycle;Signal;HPM_P1;HPM_P2
2024/01/12 00:02:17;;;;;;;63.78;34.42;;;;;;;;;;5049302;28;20426;-90
2024/01/12 00:04:44;;;;;;;67.78;34.30;;;;;;;;;;5046793;28;20052;-90
2024/01/12 00:07:12;;;;;;;69.65;35.72;;;;;;;;;;5057478;28;20052;-90
2024/01/12 00:09:43;;;;;;;70.38;35.33;;;;;;;;;;5047511;28;20055;-90
2024/01/12 00:12:10;;;;;;;67.53;35.38;;;;;;;;;;5045111;28;20434;-90
2024/01/12 00:14:37;;;;;;;66.13;35.03;;;;;;;;;;5060497;28;20486;-90
2024/01/12 00:17:05;;;;;;;63.08;33.70;;;;;;;;;;5037288;28;20077;-90
2024/01/12 00:19:32;;;;;;;64.07;33.42;;;;;;;;;;5060660;28;20061;-90
2024/01/12 00:22:00;;;;;;;60.33;32.22;;;;;;;;;;5031914;28;20386;-90
2024/01/12 00:24:27;;;;;;;65.38;35.15;;;;;;;;;;5048186;28;20056;-90
2024/01/12 00:26:54;;;;;;;62.92;33.70;;;;;;;;;;5045500;28;20440;-90
2024/01/12 00:29:21;;;;;;;68.65;36.53;;;;;;;;;;5044590;28;20430;-90
2024/01/12 00:31:49;;;;;;;59.15;33.08;;;;;;;;;;5067229;28;20052;-90
2024/01/12 00:34:16;;;;;;;64.45;35.13;;;;;;;;;;5034234;28;20100;-90
2024/01/12 00:36:43;;;;;;;64.55;34.08;;;;;;;;;;5046500;28;20060;-90
2024/01/12 00:39:10;;;;;;;63.97;34.10;;;;;;;;;;5060352;28;20456;-90
2024/01/12 00:41:38;;;;;;;63.53;35.30;;;;;;;;;;5061529;28;20084;-90
2024/01/12 00:44:07;;;;;;;67.45;33.17;;;;;;;;;;5036547;28;20053;-90
2024/01/12 00:46:34;;;;;;;66.85;33.15;;;;;;;;;;5060133;28;20053;-90
2024/01/12 00:49:01;;;;;;;65.43;32.83;;;;;;;;;;5047926;28;20098;-90
2024/01/12 00:51:29;;;;;;;60.72;32.55;;;;;;;;;;5047855;28;20482;-90
2024/01/12 00:53:56;;;;;;;66.32;34.08;;;;;;;;;;5044653;28;20455;-90
2024/01/12 00:56:24;;;;;;;58.83;31.50;;;;;;;;;;5044580;28;20103;-90
2024/01/12 00:58:51;;;;;;;59.80;32.80;;;;;;;;;;5046466;28;20045;-90
2024/01/12 01:01:18;;;;;;;60.65;32.42;;;;;;;;;;5051234;28;20046;-90
2024/01/12 01:03:46;;;;;;;68.65;33.40;;;;;;;;;;5074637;28;20125;-89
2024/01/12 01:06:14;;;;;;;66.78;34.85;;;;;;;;;;5062270;28;20044;-89
2024/01/12 01:08:41;;;;;;;59.40;32.30;;;;;;;;;;5047223;28;20075;-90
2024/01/12 01:11:08;;;;;;;60.75;31.95;;;;;;;;;;5044220;28;20081;-91
2024/01/12 01:13:36;;;;;;;59.22;31.50;;;;;;;;;;5059634;28;20073;-90
2024/01/12 01:16:04;;;;;;;60.45;32.60;;;;;;;;;;5063243;28;20488;-90
2024/01/12 01:18:32;;;;;;;56.35;30.60;;;;;;;;;;5047454;28;20080;-90
2024/01/12 01:21:04;;;;;;;63.00;31.75;;;;;;;;;;5043467;28;20085;-90
2024/01/12 01:23:31;;;;;;;64.50;32.78;;;;;;;;;;5060289;28;20505;-90
2024/01/12 01:25:59;;;;;;;58.38;31.17;;;;;;;;;;5062093;28;21538;-90
2024/01/12 01:28:26;;;;;;;66.28;34.22;;;;;;;;;;5046533;28;20076;-92
2024/01/12 01:30:55;;;;;;;59.60;33.40;;;;;;;;;;5045626;28;20051;-90
2024/01/12 01:33:23;;;;;;;61.03;33.38;;;;;;;;;;5043031;28;20057;-91
2024/01/12 01:35:50;;;;;;;61.15;33.35;;;;;;;;;;5045335;28;20049;-91
2024/01/12 01:38:18;;;;;;;55.78;31.02;;;;;;;;;;5046312;28;20404;-90
2024/01/12 01:40:45;;;;;;;57.95;31.30;;;;;;;;;;5046143;28;20076;-90
2024/01/12 01:43:12;;;;;;;58.83;31.45;;;;;;;;;;5055419;28;20456;-91
2024/01/12 01:45:39;;;;;;;57.33;30.33;;;;;;;;;;5045425;28;20064;-91
2024/01/12 01:48:07;;;;;;;64.03;31.75;;;;;;;;;;5047049;28;20046;-91
2024/01/12 01:50:35;;;;;;;58.25;30.92;;;;;;;;;;5046090;28;20103;-91
2024/01/12 01:53:03;;;;;;;49.95;29.33;;;;;;;;;;5042756;28;20107;-91
2024/01/12 01:55:31;;;;;;;59.78;31.33;;;;;;;;;;5043220;28;20041;-91
2024/01/12 01:58:00;;;;;;;57.38;30.88;;;;;;;;;;5061630;28;21023;-91
2024/01/12 02:00:27;;;;;;;58.88;31.30;;;;;;;;;;5045719;28;20044;-91
2024/01/12 02:02:55;;;;;;;54.67;29.83;;;;;;;;;;5043690;28;20485;-91
2024/01/12 02:05:23;;;;;;;59.78;32.22;;;;;;;;;;5043190;28;20111;-90
2024/01/12 02:07:50;;;;;;;58.17;30.25;;;;;;;;;;5044634;28;20072;-91
2024/01/12 02:10:18;;;;;;;60.03;31.10;;;;;;;;;;5046153;28;20045;-91
2024/01/12 02:12:45;;;;;;;55.47;29.45;;;;;;;;;;5044307;28;20386;-91
2024/01/12 02:15:12;;;;;;;60.03;33.10;;;;;;;;;;5038186;28;20054;-91
2024/01/12 02:17:39;;;;;;;60.90;31.70;;;;;;;;;;5024454;28;20107;-91
2024/01/12 02:20:07;;;;;;;62.00;32.20;;;;;;;;;;5067974;28;20056;-91
2024/01/12 02:22:34;;;;;;;63.88;31.67;;;;;;;;;;5052524;28;20056;-91
2024/01/12 02:25:02;;;;;;;59.38;31.15;;;;;;;;;;5041896;28;20049;-91
2024/01/12 02:27:29;;;;;;;59.50;31.63;;;;;;;;;;5061665;28;20052;-91
2024/01/12 02:29:57;;;;;;;59.63;32.03;;;;;;;;;;5071875;22;20057;-85
2024/01/12 02:32:25;;;;;;;56.80;31.83;;;;;;;;;;5043785;28;20060;-84
2024/01/12 02:34:53;;;;;;;58.67;31.85;;;;;;;;;;5034060;28;20060;-85
2024/01/12 02:37:21;;;;;;;57.85;30.02;;;;;;;;;;5023533;28;20107;-85
2024/01/12 02:39:48;;;;;;;57.22;31.30;;;;;;;;;;5034421;28;20080;-85
2024/01/12 02:42:15;;;;;;;57.65;31.65;;;;;;;;;;5025344;28;20053;-86
2024/01/12 02:44:42;;;;;;;57.00;31.35;;;;;;;;;;5028539;28;20125;-86
2024/01/12 02:47:12;;;;;;;59.40;31.27;;;;;;;;;;5040051;28;20051;-86
2024/01/12 02:49:39;;;;;;;55.97;31.33;;;;;;;;;;5032211;28;20153;-86
2024/01/12 02:52:06;;;;;;;58.60;31.45;;;;;;;;;;5019270;28;20582;-86
2024/01/12 02:54:34;;;;;;;61.97;31.67;;;;;;;;;;5027739;28;20049;-87
2024/01/12 02:57:01;;;;;;;57.17;30.35;;;;;;;;;;5027528;28;20050;-86
2024/01/12 02:59:28;;;;;;;56.00;31.27;;;;;;;;;;5027664;28;20092;-87
2024/01/12 03:01:55;;;;;;;67.10;33.15;;;;;;;;;;5034933;28;20049;-87
2024/01/12 03:04:23;;;;;;;59.30;31.85;;;;;;;;;;5027531;28;20104;-86
2024/01/12 03:06:50;;;;;;;57.88;30.70;;;;;;;;;;5034968;28;20045;-86
2024/01/12 03:09:17;;;;;;;52.15;29.90;;;;;;;;;;5039157;28;20057;-86
2024/01/12 03:11:45;;;;;;;56.05;29.30;;;;;;;;;;5023166;28;20041;-86
2024/01/12 03:14:12;;;;;;;51.35;28.92;;;;;;;;;;5027270;28;20049;-86
2024/01/12 03:16:39;;;;;;;58.80;30.83;;;;;;;;;;5035633;28;20049;-86
2024/01/12 03:19:06;;;;;;;59.17;31.13;;;;;;;;;;5038979;28;20379;-86
2024/01/12 03:21:34;;;;;;;57.65;30.58;;;;;;;;;;5023047;28;20060;-86
2024/01/12 03:24:01;;;;;;;62.25;31.13;;;;;;;;;;5030244;28;20053;-86
2024/01/12 03:26:29;;;;;;;56.30;30.10;;;;;;;;;;5030879;28;20053;-86
2024/01/12 03:28:56;;;;;;;60.28;30.30;;;;;;;;;;5030046;28;20432;-86
2024/01/12 03:31:23;;;;;;;54.80;29.27;;;;;;;;;;5038286;28;20492;-86
2024/01/12 03:33:51;;;;;;;62.88;32.83;;;;;;;;;;5035463;28;20045;-86
2024/01/12 03:36:19;;;;;;;60.28;30.58;;;;;;;;;;5025754;28;20053;-85
2024/01/12 03:38:48;;;;;;;55.70;30.55;;;;;;;;;;5036429;28;20049;-86
2024/01/12 03:41:15;;;;;;;58.42;31.23;;;;;;;;;;5027335;28;20042;-87
2024/01/12 03:43:42;;;;;;;62.42;33.03;;;;;;;;;;5028726;28;20049;-86
2024/01/12 03:46:10;;;;;;;56.25;30.88;;;;;;;;;;5026335;28;20042;-86
2024/01/12 03:48:39;;;;;;;58.85;30.85;;;;;;;;;;5028086;28;20406;-86
2024/01/12 03:51:06;;;;;;;58.58;31.35;;;;;;;;;;5027295;28;20056;-86
2024/01/12 03:53:33;;;;;;;56.20;31.20;;;;;;;;;;5031144;28;20119;-86
2024/01/12 03:56:01;;;;;;;54.97;29.58;;;;;;;;;;5035337;28;20049;-87
2024/01/12 03:58:28;;;;;;;53.80;29.77;;;;;;;;;;5027014;28;20084;-87
2024/01/12 04:00:55;;;;;;;53.80;29.45;;;;;;;;;;5035620;28;20050;-86
2024/01/12 04:03:23;;;;;;;57.80;31.02;;;;;;;;;;5023676;28;20073;-87
2024/01/12 04:05:50;;;;;;;55.85;29.95;;;;;;;;;;5026608;28;20489;-86
2024/01/12 04:08:17;;;;;;;53.60;29.52;;;;;;;;;;5026639;28;20161;-86
2024/01/12 04:10:44;;;;;;;55.90;29.30;;;;;;;;;;5019606;28;20120;-86
2024/01/12 04:13:12;;;;;;;54.38;30.02;;;;;;;;;;5037940;28;20543;-86
2024/01/12 04:15:39;;;;;;;55.38;29.98;;;;;;;;;;5030643;28;20133;-86
2024/01/12 04:18:06;;;;;;;60.95;31.45;;;;;;;;;;5040095;28;20049;-86
2024/01/12 04:20:34;;;;;;;57.70;31.48;;;;;;;;;;5032925;28;20045;-86
2024/01/12 04:23:01;;;;;;;57.97;30.70;;;;;;;;;;5035672;28;20495;-86
2024/01/12 04:25:29;;;;;;;55.58;28.45;;;;;;;;;;5026468;28;20088;-86
2024/01/12 04:27:56;;;;;;;57.22;29.17;;;;;;;;;;5026760;28;20141;-85
2024/01/12 04:30:23;;;;;;;62.40;29.88;;;;;;;;;;5024426;28;20054;-86
2024/01/12 04:32:51;;;;;;;59.55;30.85;;;;;;;;;;5035917;28;20094;-87
2024/01/12 04:35:18;;;;;;;59.83;31.23;;;;;;;;;;5018013;28;20188;-86
2024/01/12 04:37:45;;;;;;;53.92;29.17;;;;;;;;;;5020961;28;20050;-86
2024/01/12 04:40:13;;;;;;;52.53;29.98;;;;;;;;;;5029901;28;20108;-86
2024/01/12 04:42:40;;;;;;;53.20;29.50;;;;;;;;;;5035001;28;20080;-86
2024/01/12 04:45:08;;;;;;;58.80;29.90;;;;;;;;;;5038161;28;20115;-86
2024/01/12 04:47:35;;;;;;;57.05;30.63;;;;;;;;;;5028044;28;20054;-85
2024/01/12 04:50:03;;;;;;;59.15;30.85;;;;;;;;;;5031266;28;20049;-85
2024/01/12 04:52:30;;;;;;;65.10;34.10;;;;;;;;;;5035203;28;20053;-86
2024/01/12 04:54:57;;;;;;;59.78;33.70;;;;;;;;;;5032439;28;20069;-86
2024/01/12 04:57:24;;;;;;;65.57;35.25;;;;;;;;;;5041214;28;20057;-85
2024/01/12 04:59:52;;;;;;;66.80;34.40;;;;;;;;;;5032816;28;20053;-86
2024/01/12 05:02:19;;;;;;;61.40;33.15;;;;;;;;;;5033084;28;20053;-86
2024/01/12 05:04:46;;;;;;;60.53;33.90;;;;;;;;;;5033071;28;20144;-87
2024/01/12 05:07:14;;;;;;;64.57;35.47;;;;;;;;;;5029475;28;20501;-86
2024/01/12 05:09:41;;;;;;;64.68;34.47;;;;;;;;;;5034316;28;20535;-86
2024/01/12 05:12:08;;;;;;;70.50;35.97;;;;;;;;;;5029361;28;20054;-86
2024/01/12 05:14:36;;;;;;;65.07;33.83;;;;;;;;;;5034207;28;20046;-86
2024/01/12 05:17:04;;;;;;;62.53;32.42;;;;;;;;;;5028783;28;20053;-86
2024/01/12 05:19:31;;;;;;;60.17;33.65;;;;;;;;;;5029737;28;20088;-86
2024/01/12 05:21:59;;;;;;;63.05;33.45;;;;;;;;;;5031317;28;20104;-86
2024/01/12 05:24:27;;;;;;;59.50;32.00;;;;;;;;;;5029562;28;20061;-86
2024/01/12 05:26:54;;;;;;;63.47;31.83;;;;;;;;;;5033040;28;20061;-87
2024/01/12 05:29:21;;;;;;;62.80;32.00;;;;;;;;;;5026285;28;20080;-85
2024/01/12 05:31:49;;;;;;;68.97;34.10;;;;;;;;;;5030404;28;20053;-85
2024/01/12 05:34:16;;;;;;;62.30;32.50;;;;;;;;;;5033136;28;20096;-86
2024/01/12 05:36:43;;;;;;;62.15;32.85;;;;;;;;;;5031919;28;20068;-87
2024/01/12 05:39:11;;;;;;;70.85;34.88;;;;;;;;;;5029919;28;20052;-86
2024/01/12 05:41:38;;;;;;;67.05;34.78;;;;;;;;;;5028793;28;20085;-87
2024/01/12 05:44:05;;;;;;;65.20;32.47;;;;;;;;;;5028830;28;20113;-86
2024/01/12 05:46:32;;;;;;;64.63;34.08;;;;;;;;;;5028409;28;20054;-87
2024/01/12 05:49:03;;;;;;;61.90;33.42;;;;;;;;;;5027332;28;20112;-86
2024/01/12 05:51:31;;;;;;;67.50;32.08;;;;;;;;;;5027379;28;20049;-86
2024/01/12 05:53:58;;;;;;;60.97;31.50;;;;;;;;;;5024054;28;20045;-86
2024/01/12 05:56:26;;;;;;;62.08;32.35;;;;;;;;;;5028374;28;20445;-86
2024/01/12 05:58:53;;;;;;;65.57;32.92;;;;;;;;;;5023610;28;20080;-85
2024/01/12 06:01:21;;;;;;;60.83;31.48;;;;;;;;;;5036805;28;20053;-85
2024/01/12 06:03:48;;;;;;;63.67;32.72;;;;;;;;;;5029222;28;20497;-85
2024/01/12 06:06:15;;;;;;;64.70;33.47;;;;;;;;;;5030428;28;20060;-86
2024/01/12 06:08:43;;;;;;;65.00;31.98;;;;;;;;;;5028122;28;20054;-86
2024/01/12 06:11:10;;;;;;;61.42;32.85;;;;;;;;;;5039624;28;20057;-86
2024/01/12 06:13:37;;;;;;;68.43;33.25;;;;;;;;;;5024868;28;20456;-86
2024/01/12 06:16:05;;;;;;;63.00;32.10;;;;;;;;;;5031209;28;20049;-86
2024/01/12 06:18:34;;;;;;;63.17;33.25;;;;;;;;;;5031582;28;20404;-87
2024/01/12 06:21:01;;;;;;;56.55;31.77;;;;;;;;;;5029330;28;20053;-87
2024/01/12 06:23:28;;;;;;;66.97;33.92;;;;;;;;;;5030923;28;20054;-86
2024/01/12 06:25:56;;;;;;;60.60;31.90;;;;;;;;;;5029218;28;20064;-86
2024/01/12 06:28:23;;;;;;;65.78;34.45;;;;;;;;;;5028818;28;20504;-86
2024/01/12 06:30:53;;;;;;;73.25;35.65;;;;;;;;;;5019434;28;20416;-86
2024/01/12 06:33:21;;;;;;;64.65;33.60;;;;;;;;;;5019625;28;20057;-87
2024/01/12 06:35:48;;;;;;;65.72;34.92;;;;;;;;;;5029171;28;20048;-87
2024/01/12 06:38:15;;;;;;;65.82;34.58;;;;;;;;;;5039697;28;20069;-86
2024/01/12 06:40:43;;;;;;;63.00;34.00;;;;;;;;;;5038929;28;20072;-87
2024/01/12 06:43:10;;;;;;;68.10;34.63;;;;;;;;;;5028975;28;20054;-86
2024/01/12 06:45:37;;;;;;;65.82;35.22;;;;;;;;;;5035408;28;20050;-86
2024/01/12 06:48:05;;;;;;;61.90;33.63;;;;;;;;;;5020246;28;20050;-86
2024/01/12 06:50:33;;;;;;;63.53;32.83;;;;;;;;;;5028612;28;20137;-86
2024/01/12 06:53:09;;;;;;;65.93;33.38;;;;;;;;;;5034846;28;20496;-86
2024/01/12 06:55:36;;;;;;;64.07;33.25;;;;;;;;;;5027103;28;20046;-86
2024/01/12 06:58:04;;;;;;;62.70;33.35;;;;;;;;;;5019375;28;20457;-87
2024/01/12 07:00:31;;;;;;;62.28;32.67;;;;;;;;;;5026762;28;20084;-86
2024/01/12 07:02:59;;;;;;;55.80;30.08;;;;;;;;;;5027880;28;20065;-86
2024/01/12 07:05:26;;;;;;;60.45;31.23;;;;;;;;;;5028589;28;20140;-87
2024/01/12 07:07:54;;;;;;;66.03;33.53;;;;;;;;;;5027639;28;20053;-85
2024/01/12 07:10:21;;;;;;;66.40;33.90;;;;;;;;;;5027196;28;20479;-87
2024/01/12 07:12:51;;;;;;;61.45;33.42;;;;;;;;;;5028183;28;20181;-86
2024/01/12 07:15:20;;;;;;;55.67;31.30;;;;;;;;;;5030744;28;20547;-85
2024/01/12 07:17:50;;;;;;;59.80;32.63;;;;;;;;;;5026662;28;20050;-85
2024/01/12 07:20:18;;;;;;;63.53;32.80;;;;;;;;;;5029654;28;20394;-86
2024/01/12 07:22:46;;;;;;;63.25;34.45;;;;;;;;;;5017130;28;20054;-86
2024/01/12 07:25:13;;;;;;;64.35;33.75;;;;;;;;;;5034365;28;20054;-86
2024/01/12 07:27:41;;;;;;;69.43;34.33;;;;;;;;;;5027065;28;20058;-86
2024/01/12 07:30:12;;;;;;;61.55;32.88;;;;;;;;;;5034057;28;20053;-87
2024/01/12 07:32:39;;;;;;;65.97;31.15;;;;;;;;;;5026361;28;20464;-85
2024/01/12 07:35:07;;;;;;;59.88;32.40;;;;;;;;;;5031201;28;20056;-86
2024/01/12 07:37:35;;;;;;;56.95;31.80;;;;;;;;;;5031162;28;20045;-87
2024/01/12 07:40:02;;;;;;;62.97;34.30;;;;;;;;;;5026810;28;20070;-86
2024/01/12 07:42:31;;;;;;;61.88;30.58;;;;;;;;;;5017873;28;20109;-87
2024/01/12 07:44:58;;;;;;;55.75;30.63;;;;;;;;;;5029116;28;20065;-87
2024/01/12 07:47:25;;;;;;;54.95;31.00;;;;;;;;;;5019957;28;20505;-86
2024/01/12 07:49:52;;;;;;;54.13;30.70;;;;;;;;;;5024697;28;20053;-87
2024/01/12 07:52:20;;;;;;;60.47;30.38;;;;;;;;;;5027220;28;20513;-87
2024/01/12 07:54:49;;;;;;;52.88;29.35;;;;;;;;;;5028265;28;20053;-86
2024/01/12 07:57:16;;;;;;;51.47;29.15;;;;;;;;;;5037881;28;20054;-86
2024/01/12 07:59:44;;;;;;;57.60;28.83;;;;;;;;;;5037714;28;20056;-86
2024/01/12 08:02:11;;;;;;;58.00;30.95;;;;;;;;;;5026526;28;20072;-86
2024/01/12 08:04:39;;;;;;;56.78;30.50;;;;;;;;;;5026061;28;20053;-87
2024/01/12 08:07:06;;;;;;;56.03;30.88;;;;;;;;;;5038173;28;20045;-87
2024/01/12 08:09:34;;;;;;;54.40;30.20;;;;;;;;;;5038289;28;20137;-87
2024/01/12 08:12:02;;;;;;;54.55;30.13;;;;;;;;;;5036106;28;20045;-86
2024/01/12 08:14:29;;;;;;;62.22;32.97;;;;;;;;;;5030725;28;20049;-87
2024/01/12 08:16:57;;;;;;;76.05;40.08;;;;;;;;;;5029482;28;20053;-86
2024/01/12 08:19:24;;;;;;;60.63;32.15;;;;;;;;;;5029647;28;20045;-86
2024/01/12 08:21:51;;;;;;;59.05;31.50;;;;;;;;;;5031648;28;20054;-85
2024/01/12 08:24:23;;;;;;;60.75;32.22;;;;;;;;;;5041415;28;20462;-86
2024/01/12 08:26:50;;;;;;;65.78;33.42;;;;;;;;;;5032521;28;20475;-86
2024/01/12 08:29:17;;;;;;;62.47;31.73;;;;;;;;;;5038011;28;20049;-84
2024/01/12 08:31:45;;;;;;;55.85;29.83;;;;;;;;;;5039555;28;20064;-85
2024/01/12 08:34:12;;;;;;;50.63;28.90;;;;;;;;;;5023352;28;20050;-86
2024/01/12 08:36:40;;;;;;;47.92;27.90;;;;;;;;;;5031148;28;20054;-86
2024/01/12 08:39:07;;;;;;;56.22;29.52;;;;;;;;;;5025585;28;20042;-86
2024/01/12 08:41:34;;;;;;;52.60;28.25;;;;;;;;;;5033611;28;20073;-87
2024/01/12 08:44:02;;;;;;;49.97;27.83;;;;;;;;;;5032354;28;20088;-86
2024/01/12 08:46:29;;;;;;;53.88;29.00;;;;;;;;;;5033884;28;20108;-87
2024/01/12 08:48:58;;;;;;;51.97;27.88;;;;;;;;;;5031498;28;20050;-86
2024/01/12 08:51:26;;;;;;;53.88;27.73;;;;;;;;;;5022764;28;20158;-86
2024/01/12 08:53:53;;;;;;;47.67;28.77;;;;;;;;;;5029243;28;20053;-86
2024/01/12 08:56:20;;;;;;;51.42;28.83;;;;;;;;;;5035744;28;20058;-85
2024/01/12 08:58:47;;;;;;;53.45;27.65;;;;;;;;;;5030322;28;20053;-86
2024/01/12 09:01:15;;;;;;;50.60;27.55;;;;;;;;;;5040772;28;20045;-86
2024/01/12 09:03:42;;;;;;;53.35;28.50;;;;;;;;;;5032389;28;20053;-86
2024/01/12 09:06:11;;;;;;;53.22;31.58;;;;;;;;;;5029008;28;20241;-86
2024/01/12 09:08:38;;;;;;;53.95;30.20;;;;;;;;;;5037534;28;20046;-87
2024/01/12 09:11:07;;;;;;;52.75;26.95;;;;;;;;;;5021211;28;20045;-86
2024/01/12 09:13:35;;;;;;;50.00;28.50;;;;;;;;;;5028534;28;20049;-87
2024/01/12 09:16:02;;;;;;;53.08;28.10;;;;;;;;;;5036348;28;20049;-86
2024/01/12 09:18:30;;;;;;;52.83;28.98;;;;;;;;;;5030229;28;20467;-86
2024/01/12 09:20:57;;;;;;;53.88;28.35;;;;;;;;;;5038744;28;20050;-87
2024/01/12 09:23:25;;;;;;;47.58;27.40;;;;;;;;;;5039822;28;20459;-86
2024/01/12 09:25:53;;;;;;;52.47;28.52;;;;;;;;;;5031434;28;20050;-86
2024/01/12 09:28:22;;;;;;;50.85;28.90;;;;;;;;;;5028794;28;20054;-86
2024/01/12 09:30:49;;;;;;;54.58;29.38;;;;;;;;;;5028744;28;20061;-86
2024/01/12 09:33:16;;;;;;;46.15;27.55;;;;;;;;;;5029869;28;20489;-86
2024/01/12 09:35:44;;;;;;;49.85;26.27;;;;;;;;;;5028843;28;20045;-86
2024/01/12 09:38:11;;;;;;;52.22;27.73;;;;;;;;;;5028538;28;20132;-86
2024/01/12 09:40:38;;;;;;;45.72;25.80;;;;;;;;;;5028264;28;20461;-86
2024/01/12 09:43:09;;;;;;;46.50;26.73;;;;;;;;;;5045540;28;20049;-84
2024/01/12 09:45:37;;;;;;;48.20;25.45;;;;;;;;;;5039271;28;20053;-86
2024/01/12 09:48:04;;;;;;;47.50;24.88;;;;;;;;;;5029718;28;20045;-86
2024/01/12 09:50:32;;;;;;;49.65;26.80;;;;;;;;;;5029464;28;20053;-86
2024/01/12 09:52:59;;;;;;;48.05;27.05;;;;;;;;;;5030969;28;20065;-86
2024/01/12 09:55:26;;;;;;;44.15;25.55;;;;;;;;;;5042011;22;20486;-85
2024/01/12 09:57:54;;;;;;;50.08;26.75;;;;;;;;;;5037510;28;20049;-85
2024/01/12 10:00:25;;;;;;;47.38;27.23;;;;;;;;;;5040865;28;20053;-85
2024/01/12 10:02:55;;;;;;;49.47;27.15;;;;;;;;;;5020852;28;20054;-84
2024/01/12 10:05:23;;;;;;;49.28;27.98;;;;;;;;;;5030315;28;20053;-85
2024/01/12 10:07:50;;;;;;;51.10;27.92;;;;;;;;;;5036788;28;20053;-85
2024/01/12 10:10:17;;;;;;;44.58;26.20;;;;;;;;;;5040321;28;20041;-85
2024/01/12 10:12:48;;;;;;;37.17;22.15;;;;;;;;;;5028451;28;20411;-85
2024/01/12 10:15:16;;;;;;;41.13;23.15;;;;;;;;;;5039245;28;20057;-85
2024/01/12 10:17:43;;;;;;;51.42;30.50;;;;;;;;;;5037076;28;20103;-85
2024/01/12 10:20:10;;;;;;;39.38;21.83;;;;;;;;;;5053922;22;20422;-83
2024/01/12 10:22:38;;;;;;;35.47;19.65;;;;;;;;;;5013685;28;20404;-83
2024/01/12 10:25:05;;;;;;;33.03;19.67;;;;;;;;;;5013804;28;20052;-83
2024/01/12 10:27:33;;;;;;;37.83;20.83;;;;;;;;;;5013370;28;20046;-83
2024/01/12 10:30:00;;;;;;;31.02;17.27;;;;;;;;;;5014941;28;20062;-84
2024/01/12 10:32:27;;;;;;;29.27;16.92;;;;;;;;;;5014838;28;20492;-83
2024/01/12 10:34:55;;;;;;;30.70;17.88;;;;;;;;;;5005817;28;20056;-83
2024/01/12 10:37:22;;;;;;;29.95;18.13;;;;;;;;;;5014517;28;20056;-83
2024/01/12 10:39:50;;;;;;;29.70;18.38;;;;;;;;;;5014700;28;20042;-83
2024/01/12 10:42:20;;;;;;;29.75;16.50;;;;;;;;;;5015032;28;20050;-83
2024/01/12 10:44:50;;;;;;;27.48;16.95;;;;;;;;;;5013546;28;20129;-83
2024/01/12 10:47:20;;;;;;;29.55;17.70;;;;;;;;;;5013617;28;20053;-83
2024/01/12 10:49:49;;;;;;;61.63;37.97;;;;;;;;;;5018783;28;20137;-84
2024/01/12 10:52:17;;;;;;;30.52;17.05;;;;;;;;;;5012941;28;20470;-83
2024/01/12 10:54:50;;;;;;;23.05;13.82;;;;;;;;;;5015252;28;20133;-83
2024/01/12 10:57:18;;;;;;;23.65;13.82;;;;;;;;;;5014325;28;20050;-83
2024/01/12 10:59:45;;;;;;;26.20;15.15;;;;;;;;;;5013473;28;20045;-82
2024/01/12 11:02:13;;;;;;;24.58;14.85;;;;;;;;;;5013535;28;20414;-83
2024/01/12 11:04:42;;;;;;;24.40;13.75;;;;;;;;;;5014194;28;20045;-82
2024/01/12 11:07:10;;;;;;;26.40;14.50;;;;;;;;;;5016119;28;20112;-83
2024/01/12 11:09:38;;;;;;;25.33;13.13;;;;;;;;;;5015397;28;20056;-83
2024/01/12 11:12:10;;;;;;;29.08;15.10;;;;;;;;;;5013686;28;20100;-82
2024/01/12 11:14:38;;;;;;;29.30;14.90;;;;;;;;;;5014426;28;20058;-83
2024/01/12 11:17:06;;;;;;;24.70;13.20;;;;;;;;;;5013961;28;20150;-82
2024/01/12 11:19:34;;;;;;;26.77;13.48;;;;;;;;;;5015344;28;20133;-82
2024/01/12 11:22:11;;;;;;;29.50;14.13;;;;;;;;;;5013983;28;20046;-82
2024/01/12 11:24:42;;;;;;;25.63;13.30;;;;;;;;;;5012706;28;20104;-82
2024/01/12 11:27:13;;;;;;;23.73;13.40;;;;;;;;;;4987078;28;20050;-82
2024/01/12 11:29:41;;;;;;;22.35;12.20;;;;;;;;;;5012595;28;20077;-82
2024/01/12 11:32:08;;;;;;;25.17;13.40;;;;;;;;;;5013795;28;20053;-83
2024/01/12 11:34:38;;;;;;;22.52;11.85;;;;;;;;;;5015642;28;20506;-82
2024/01/12 11:37:10;;;;;;;19.85;10.70;;;;;;;;;;5013562;28;20053;-83
2024/01/12 11:39:37;;;;;;;19.70;11.02;;;;;;;;;;5012698;28;20080;-82
2024/01/12 11:42:05;;;;;;;18.70;10.65;;;;;;;;;;5014163;28;20046;-83
2024/01/12 11:44:33;;;;;;;19.88;9.93;;;;;;;;;;5015131;28;20111;-83
2024/01/12 11:47:01;;;;;;;18.30;9.70;;;;;;;;;;5015964;28;20050;-83
2024/01/12 11:49:30;;;;;;;19.02;9.80;;;;;;;;;;5016252;28;20077;-83
2024/01/12 11:52:02;;;;;;;19.30;10.73;;;;;;;;;;5014241;28;20104;-82
2024/01/12 11:54:29;;;;;;;18.83;11.32;;;;;;;;;;5013311;28;20049;-83
2024/01/12 11:56:56;;;;;;;14.30;9.02;;;;;;;;;;5012784;28;20050;-82
2024/01/12 11:59:24;;;;;;;14.80;10.05;;;;;;;;;;5014823;28;20481;-83
2024/01/12 12:01:51;;;;;;;13.20;8.70;;;;;;;;;;5013512;28;20073;-82
2024/01/12 12:04:18;;;;;;;13.90;8.95;;;;;;;;;;5015791;28;20113;-83
2024/01/12 12:06:49;;;;;;;13.27;8.95;;;;;;;;;;5013854;28;20080;-82
2024/01/12 12:09:16;;;;;;;12.10;7.88;;;;;;;;;;5013892;28;20108;-82
2024/01/12 12:11:44;;;;;;;9.55;7.07;;;;;;;;;;5015387;28;20058;-82
2024/01/12 12:14:11;;;;;;;11.25;7.63;;;;;;;;;;5015421;28;20046;-82
2024/01/12 12:16:38;;;;;;;12.40;7.45;;;;;;;;;;5014612;28;20056;-82
2024/01/12 12:19:06;;;;;;;10.70;7.05;;;;;;;;;;5015450;28;20046;-83
2024/01/12 12:21:34;;;;;;;12.15;7.60;;;;;;;;;;5014887;28;20050;-82
2024/01/12 12:24:01;;;;;;;10.00;6.68;;;;;;;;;;5016212;28;20100;-82
2024/01/12 12:26:28;;;;;;;10.20;6.90;;;;;;;;;;5014114;28;20053;-82
2024/01/12 12:28:56;;;;;;;9.27;6.30;;;;;;;;;;5016042;28;20050;-82
2024/01/12 12:31:27;;;;;;;13.95;8.70;;;;;;;;;;5017058;28;20081;-82
2024/01/12 12:33:54;;;;;;;10.18;6.90;;;;;;;;;;5014495;28;20049;-82
2024/01/12 12:36:22;;;;;;;9.85;7.32;;;;;;;;;;5015998;28;20566;-82
2024/01/12 12:38:49;;;;;;;8.05;6.10;;;;;;;;;;5014916;28;20529;-82
2024/01/12 12:41:17;;;;;;;8.80;6.20;;;;;;;;;;5015334;28;20438;-82
2024/01/12 12:43:46;;;;;;;7.07;5.35;;;;;;;;;;5016499;28;20100;-82
2024/01/12 12:46:14;;;;;;;6.82;5.88;;;;;;;;;;5015335;28;20096;-82
2024/01/12 12:48:41;;;;;;;7.13;5.13;;;;;;;;;;5014834;28;20529;-82
2024/01/12 12:51:10;;;;;;;7.28;4.93;;;;;;;;;;5014752;28;20042;-82
2024/01/12 12:53:38;;;;;;;7.47;4.97;;;;;;;;;;5013069;28;20042;-81
2024/01/12 12:56:05;;;;;;;8.02;5.20;;;;;;;;;;5013887;28;20050;-82
2024/01/12 12:58:32;;;;;;;6.13;4.70;;;;;;;;;;5016874;28;20057;-81
2024/01/12 13:00:59;;;;;;;9.55;5.53;;;;;;;;;;5017248;28;20499;-83
2024/01/12 13:03:27;;;;;;;7.13;5.13;;;;;;;;;;5018150;28;20494;-82
2024/01/12 13:05:54;;;;;;;5.63;4.40;;;;;;;;;;5016493;28;20621;-82
2024/01/12 13:08:23;;;;;;;5.72;4.53;;;;;;;;;;5015970;28;20050;-81
2024/01/12 13:10:52;;;;;;;9.38;5.93;;;;;;;;;;5016941;28;20054;-82
2024/01/12 13:13:20;;;;;;;6.53;5.05;;;;;;;;;;5015522;28;20054;-81
2024/01/12 13:15:49;;;;;;;10.30;5.50;;;;;;;;;;5016074;28;20418;-83
2024/01/12 13:18:16;;;;;;;6.95;5.82;;;;;;;;;;5017076;28;20046;-83
2024/01/12 13:20:46;;;;;;;12.95;8.73;;;;;;;;;;5016598;28;20049;-83
2024/01/12 13:23:14;;;;;;;94.50;36.90;;;;;;;;;;5016649;28;20042;-82
2024/01/12 13:25:41;;;;;;;8.52;6.68;;;;;;;;;;5015888;28;20537;-83
2024/01/12 13:28:08;;;;;;;7.63;5.50;;;;;;;;;;5016409;28;20046;-83
2024/01/12 13:30:36;;;;;;;8.60;5.80;;;;;;;;;;5018247;28;20046;-83
2024/01/12 13:33:03;;;;;;;7.50;5.88;;;;;;;;;;5015910;28;20050;-83
2024/01/12 13:35:30;;;;;;;8.13;6.82;;;;;;;;;;5016876;28;20104;-82
2024/01/12 13:37:58;;;;;;;10.02;7.72;;;;;;;;;;5016879;28;20112;-82
2024/01/12 13:40:25;;;;;;;11.13;7.70;;;;;;;;;;5015310;28;20046;-82
2024/01/12 13:42:52;;;;;;;9.95;7.13;;;;;;;;;;5015203;28;20104;-82
2024/01/12 13:45:19;;;;;;;10.63;7.40;;;;;;;;;;5016651;28;20103;-82
2024/01/12 13:47:46;;;;;;;15.05;12.82;;;;;;;;;;5016455;28;20050;-82
2024/01/12 13:50:14;;;;;;;13.27;10.20;;;;;;;;;;5015029;28;20061;-82
2024/01/12 13:52:42;;;;;;;9.77;8.20;;;;;;;;;;5015600;28;20053;-81
2024/01/12 13:55:09;;;;;;;9.82;7.63;;;;;;;;;;5015141;28;20049;-83
2024/01/12 13:57:37;;;;;;;10.73;7.97;;;;;;;;;;5015274;28;20060;-82
2024/01/12 14:00:06;;;;;;;10.80;9.70;;;;;;;;;;5015749;28;20053;-83
2024/01/12 14:02:35;;;;;;;9.52;6.68;;;;;;;;;;5014606;28;20077;-83
2024/01/12 14:05:02;;;;;;;12.00;9.00;;;;;;;;;;5015091;28;20050;-82
2024/01/12 14:07:43;;;;;;;11.38;8.13;;;;;;;;;;5014452;28;20050;-82
2024/01/12 14:10:11;;;;;;;8.88;7.97;;;;;;;;;;5016534;28;20050;-82
2024/01/12 14:12:38;;;;;;;10.40;7.75;;;;;;;;;;5014935;28;20046;-82
2024/01/12 14:15:05;;;;;;;9.00;7.20;;;;;;;;;;4999593;28;20181;-82
2024/01/12 14:17:33;;;;;;;9.80;7.70;;;;;;;;;;5015991;28;20062;-82
2024/01/12 14:20:00;;;;;;;9.00;7.50;;;;;;;;;;5015827;28;20062;-82
2024/01/12 14:22:28;;;;;;;10.13;7.13;;;;;;;;;;5014644;28;20042;-82
2024/01/12 14:24:55;;;;;;;10.13;7.53;;;;;;;;;;5015254;28;20050;-82